sensor_id;sensor_type;location;lat;lon;timestamp;P1;durP1;ratioP1;P2;durP2;ratioP2
21432;SDS011;18592;49.708;10.900;2023-02-24T00:01:58;12.57;;;10.00;;
21432;SDS011;18592;49.708;10.900;2023-02-24T00:04:03;17.30;;;10.88;;
21432;SDS011;18592;49.708;10.900;2023-02-24T00:06:10;12.18;;;9.65;;
21432;SDS011;18592;49.708;10.900;2023-02-24T00:08:12;13.90;;;10.63;;
21432;SDS011;18592;49.708;10.900;2023-02-24T00:10:13;14.10;;;10.85;;
21432;SDS011;18592;49.708;10.900;2023-02-24T00:12:19;14.95;;;10.55;;
21432;SDS011;18592;49.708;10.900;2023-02-24T00:14:21;14.77;;;10.25;;
21432;SDS011;18592;49.708;10.900;2023-02-24T00:16:25;14.75;;;10.45;;
21432;SDS011;18592;49.708;10.900;2023-02-24T00:18:27;13.05;;;10.10;;
21432;SDS011;18592;49.708;10.900;2023-02-24T00:20:29;15.93;;;10.80;;
21432;SDS011;18592;49.708;10.900;2023-02-24T00:22:33;13.35;;;10.02;;
21432;SDS011;18592;49.708;10.900;2023-02-24T00:24:35;15.10;;;10.82;;
21432;SDS011;18592;49.708;10.900;2023-02-24T00:26:37;14.40;;;10.32;;
21432;SDS011;18592;49.708;10.900;2023-02-24T00:28:40;14.70;;;10.23;;
21432;SDS011;18592;49.708;10.900;2023-02-24T00:30:42;12.88;;;9.98;;
21432;SDS011;18592;49.708;10.900;2023-02-24T00:32:44;14.10;;;9.90;;
21432;SDS011;18592;49.708;10.900;2023-02-24T00:34:46;13.15;;;9.65;;
21432;SDS011;18592;49.708;10.900;2023-02-24T00:36:48;16.58;;;11.00;;
21432;SDS011;18592;49.708;10.900;2023-02-24T00:38:51;14.07;;;10.65;;
21432;SDS011;18592;49.708;10.900;2023-02-24T00:40:57;14.88;;;10.27;;
21432;SDS011;18592;49.708;10.900;2023-02-24T00:43:00;15.68;;;10.20;;
21432;SDS011;18592;49.708;10.900;2023-02-24T00:45:10;13.95;;;10.77;;
21432;SDS011;18592;49.708;10.900;2023-02-24T00:47:12;15.43;;;11.18;;
21432;SDS011;18592;49.708;10.900;2023-02-24T00:49:17;14.85;;;11.13;;
21432;SDS011;18592;49.708;10.900;2023-02-24T00:51:22;15.77;;;11.30;;
21432;SDS011;18592;49.708;10.900;2023-02-24T00:53:25;16.25;;;11.27;;
21432;SDS011;18592;49.708;10.900;2023-02-24T00:55:29;14.38;;;10.48;;
21432;SDS011;18592;49.708;10.900;2023-02-24T00:57:38;16.98;;;11.63;;
21432;SDS011;18592;49.708;10.900;2023-02-24T00:59:41;16.63;;;10.90;;
21432;SDS011;18592;49.708;10.900;2023-02-24T01:01:48;16.55;;;11.18;;
21432;SDS011;18592;49.708;10.900;2023-02-24T01:03:51;17.70;;;11.35;;
21432;SDS011;18592;49.708;10.900;2023-02-24T01:06:00;13.73;;;10.93;;
21432;SDS011;18592;49.708;10.900;2023-02-24T01:08:03;15.32;;;10.95;;
21432;SDS011;18592;49.708;10.900;2023-02-24T01:10:09;15.85;;;11.40;;
21432;SDS011;18592;49.708;10.900;2023-02-24T01:12:21;16.48;;;11.00;;
21432;SDS011;18592;49.708;10.900;2023-02-24T01:14:42;14.85;;;10.93;;
21432;SDS011;18592;49.708;10.900;2023-02-24T01:16:47;15.60;;;10.82;;
21432;SDS011;18592;49.708;10.900;2023-02-24T01:18:50;16.40;;;11.70;;
21432;SDS011;18592;49.708;10.900;2023-02-24T01:20:52;16.73;;;11.07;;
21432;SDS011;18592;49.708;10.900;2023-02-24T01:22:54;14.77;;;11.02;;
21432;SDS011;18592;49.708;10.900;2023-02-24T01:24:58;16.85;;;11.27;;
21432;SDS011;18592;49.708;10.900;2023-02-24T01:26:59;16.35;;;12.10;;
21432;SDS011;18592;49.708;10.900;2023-02-24T01:29:04;17.10;;;11.93;;
21432;SDS011;18592;49.708;10.900;2023-02-24T01:31:05;15.48;;;11.23;;
21432;SDS011;18592;49.708;10.900;2023-02-24T01:33:07;16.90;;;11.63;;
21432;SDS011;18592;49.708;10.900;2023-02-24T01:35:09;15.93;;;11.45;;
21432;SDS011;18592;49.708;10.900;2023-02-24T01:37:12;14.85;;;10.65;;
21432;SDS011;18592;49.708;10.900;2023-02-24T01:39:16;18.65;;;12.40;;
21432;SDS011;18592;49.708;10.900;2023-02-24T01:41:22;16.77;;;11.98;;
21432;SDS011;18592;49.708;10.900;2023-02-24T01:43:27;17.75;;;11.40;;
21432;SDS011;18592;49.708;10.900;2023-02-24T01:45:29;17.85;;;12.10;;
21432;SDS011;18592;49.708;10.900;2023-02-24T01:47:36;16.67;;;11.27;;
21432;SDS011;18592;49.708;10.900;2023-02-24T01:49:41;13.50;;;10.27;;
21432;SDS011;18592;49.708;10.900;2023-02-24T01:51:56;16.00;;;11.48;;
21432;SDS011;18592;49.708;10.900;2023-02-24T01:54:04;15.13;;;11.07;;
21432;SDS011;18592;49.708;10.900;2023-02-24T01:56:11;17.38;;;12.55;;
21432;SDS011;18592;49.708;10.900;2023-02-24T01:58:35;14.77;;;10.60;;
21432;SDS011;18592;49.708;10.900;2023-02-24T02:00:38;17.35;;;11.98;;
21432;SDS011;18592;49.708;10.900;2023-02-24T02:02:46;17.98;;;12.32;;
21432;SDS011;18592;49.708;10.900;2023-02-24T02:04:54;15.82;;;11.50;;
21432;SDS011;18592;49.708;10.900;2023-02-24T02:06:59;16.58;;;11.27;;
21432;SDS011;18592;49.708;10.900;2023-02-24T02:09:04;16.40;;;11.82;;
21432;SDS011;18592;49.708;10.900;2023-02-24T02:11:15;17.40;;;12.15;;
21432;SDS011;18592;49.708;10.900;2023-02-24T02:13:20;18.90;;;13.18;;
21432;SDS011;18592;49.708;10.900;2023-02-24T02:15:24;17.90;;;11.70;;
21432;SDS011;18592;49.708;10.900;2023-02-24T02:19:54;15.75;;;11.90;;
21432;SDS011;18592;49.708;10.900;2023-02-24T02:24:55;19.02;;;12.52;;
21432;SDS011;18592;49.708;10.900;2023-02-24T02:35:11;17.77;;;12.15;;
21432;SDS011;18592;49.708;10.900;2023-02-24T02:37:43;18.75;;;12.18;;
21432;SDS011;18592;49.708;10.900;2023-02-24T02:40:13;18.10;;;12.48;;
21432;SDS011;18592;49.708;10.900;2023-02-24T02:42:28;20.38;;;13.43;;
21432;SDS011;18592;49.708;10.900;2023-02-24T02:47:30;22.50;;;13.52;;
21432;SDS011;18592;49.708;10.900;2023-02-24T02:49:56;20.23;;;13.25;;
21432;SDS011;18592;49.708;10.900;2023-02-24T02:52:09;19.52;;;12.98;;
21432;SDS011;18592;49.708;10.900;2023-02-24T02:54:28;18.02;;;12.80;;
21432;SDS011;18592;49.708;10.900;2023-02-24T02:56:48;18.15;;;12.57;;
21432;SDS011;18592;49.708;10.900;2023-02-24T02:58:57;19.85;;;13.18;;
21432;SDS011;18592;49.708;10.900;2023-02-24T03:01:00;21.98;;;13.40;;
21432;SDS011;18592;49.708;10.900;2023-02-24T03:03:09;22.15;;;14.10;;
21432;SDS011;18592;49.708;10.900;2023-02-24T03:05:18;18.27;;;13.10;;
21432;SDS011;18592;49.708;10.900;2023-02-24T03:07:24;17.67;;;12.20;;
21432;SDS011;18592;49.708;10.900;2023-02-24T03:09:34;17.58;;;12.68;;
21432;SDS011;18592;49.708;10.900;2023-02-24T03:11:40;17.65;;;12.43;;
21432;SDS011;18592;49.708;10.900;2023-02-24T03:13:43;18.50;;;12.68;;
21432;SDS011;18592;49.708;10.900;2023-02-24T03:15:51;17.70;;;12.27;;
21432;SDS011;18592;49.708;10.900;2023-02-24T03:18:01;19.05;;;12.77;;
21432;SDS011;18592;49.708;10.900;2023-02-24T03:20:15;18.67;;;12.88;;
21432;SDS011;18592;49.708;10.900;2023-02-24T03:22:26;20.92;;;12.80;;
21432;SDS011;18592;49.708;10.900;2023-02-24T03:24:35;21.17;;;13.65;;
21432;SDS011;18592;49.708;10.900;2023-02-24T03:29:28;18.20;;;12.90;;
21432;SDS011;18592;49.708;10.900;2023-02-24T03:31:54;17.98;;;11.98;;
21432;SDS011;18592;49.708;10.900;2023-02-24T03:34:15;18.73;;;12.85;;
21432;SDS011;18592;49.708;10.900;2023-02-24T03:36:24;17.60;;;12.25;;
21432;SDS011;18592;49.708;10.900;2023-02-24T03:38:26;18.45;;;12.27;;
21432;SDS011;18592;49.708;10.900;2023-02-24T03:40:31;20.45;;;13.32;;
21432;SDS011;18592;49.708;10.900;2023-02-24T03:42:39;17.60;;;12.13;;
21432;SDS011;18592;49.708;10.900;2023-02-24T03:44:44;18.52;;;12.75;;
21432;SDS011;18592;49.708;10.900;2023-02-24T03:46:46;20.20;;;13.27;;
21432;SDS011;18592;49.708;10.900;2023-02-24T03:48:53;20.23;;;13.38;;
21432;SDS011;18592;49.708;10.900;2023-02-24T03:51:02;20.02;;;13.30;;
21432;SDS011;18592;49.708;10.900;2023-02-24T03:58:20;22.13;;;13.52;;
21432;SDS011;18592;49.708;10.900;2023-02-24T04:03:12;19.15;;;12.88;;
21432;SDS011;18592;49.708;10.900;2023-02-24T04:05:33;18.75;;;12.65;;
21432;SDS011;18592;49.708;10.900;2023-02-24T04:07:56;19.75;;;13.50;;
21432;SDS011;18592;49.708;10.900;2023-02-24T04:10:05;17.83;;;12.00;;
21432;SDS011;18592;49.708;10.900;2023-02-24T04:12:23;22.15;;;13.45;;
21432;SDS011;18592;49.708;10.900;2023-02-24T04:14:51;19.60;;;12.50;;
21432;SDS011;18592;49.708;10.900;2023-02-24T04:17:15;18.60;;;12.13;;
21432;SDS011;18592;49.708;10.900;2023-02-24T04:19:22;18.33;;;12.68;;
21432;SDS011;18592;49.708;10.900;2023-02-24T04:21:28;17.17;;;11.30;;
21432;SDS011;18592;49.708;10.900;2023-02-24T04:23:37;19.42;;;13.20;;
21432;SDS011;18592;49.708;10.900;2023-02-24T04:25:43;18.70;;;12.95;;
21432;SDS011;18592;49.708;10.900;2023-02-24T04:27:49;18.05;;;12.60;;
21432;SDS011;18592;49.708;10.900;2023-02-24T04:29:54;21.98;;;12.85;;
21432;SDS011;18592;49.708;10.900;2023-02-24T04:32:07;19.45;;;13.07;;
21432;SDS011;18592;49.708;10.900;2023-02-24T04:34:14;19.10;;;12.85;;
21432;SDS011;18592;49.708;10.900;2023-02-24T04:36:20;17.90;;;12.57;;
21432;SDS011;18592;49.708;10.900;2023-02-24T04:38:23;17.25;;;12.30;;
21432;SDS011;18592;49.708;10.900;2023-02-24T04:40:25;17.83;;;12.63;;
21432;SDS011;18592;49.708;10.900;2023-02-24T04:42:29;19.40;;;12.45;;
21432;SDS011;18592;49.708;10.900;2023-02-24T04:44:31;19.33;;;13.05;;
21432;SDS011;18592;49.708;10.900;2023-02-24T04:46:35;21.33;;;12.93;;
21432;SDS011;18592;49.708;10.900;2023-02-24T04:48:37;18.75;;;12.27;;
21432;SDS011;18592;49.708;10.900;2023-02-24T04:50:40;18.88;;;12.57;;
21432;SDS011;18592;49.708;10.900;2023-02-24T04:52:43;20.55;;;13.13;;
21432;SDS011;18592;49.708;10.900;2023-02-24T04:54:45;20.67;;;13.48;;
21432;SDS011;18592;49.708;10.900;2023-02-24T04:56:47;19.92;;;13.07;;
21432;SDS011;18592;49.708;10.900;2023-02-24T04:58:51;16.55;;;11.45;;
21432;SDS011;18592;49.708;10.900;2023-02-24T05:00:53;18.90;;;12.13;;
21432;SDS011;18592;49.708;10.900;2023-02-24T05:02:56;18.80;;;12.60;;
21432;SDS011;18592;49.708;10.900;2023-02-24T05:04:57;21.10;;;13.90;;
21432;SDS011;18592;49.708;10.900;2023-02-24T05:06:59;19.10;;;12.45;;
21432;SDS011;18592;49.708;10.900;2023-02-24T05:09:01;18.58;;;12.55;;
21432;SDS011;18592;49.708;10.900;2023-02-24T05:11:14;19.52;;;12.43;;
21432;SDS011;18592;49.708;10.900;2023-02-24T05:13:20;18.90;;;13.05;;
21432;SDS011;18592;49.708;10.900;2023-02-24T05:15:27;19.58;;;12.80;;
21432;SDS011;18592;49.708;10.900;2023-02-24T05:17:33;17.70;;;12.32;;
21432;SDS011;18592;49.708;10.900;2023-02-24T05:19:35;18.02;;;12.57;;
21432;SDS011;18592;49.708;10.900;2023-02-24T05:22:09;18.67;;;13.05;;
21432;SDS011;18592;49.708;10.900;2023-02-24T05:24:12;18.10;;;12.63;;
21432;SDS011;18592;49.708;10.900;2023-02-24T05:26:17;22.77;;;14.15;;
21432;SDS011;18592;49.708;10.900;2023-02-24T05:28:20;19.30;;;12.90;;
21432;SDS011;18592;49.708;10.900;2023-02-24T05:30:23;19.40;;;13.35;;
21432;SDS011;18592;49.708;10.900;2023-02-24T05:32:25;19.10;;;13.23;;
21432;SDS011;18592;49.708;10.900;2023-02-24T05:34:27;20.63;;;13.00;;
21432;SDS011;18592;49.708;10.900;2023-02-24T05:36:32;20.77;;;13.35;;
21432;SDS011;18592;49.708;10.900;2023-02-24T05:38:36;20.67;;;13.07;;
21432;SDS011;18592;49.708;10.900;2023-02-24T05:40:38;18.08;;;12.98;;
21432;SDS011;18592;49.708;10.900;2023-02-24T05:42:47;23.42;;;13.85;;
21432;SDS011;18592;49.708;10.900;2023-02-24T05:44:48;22.10;;;14.27;;
21432;SDS011;18592;49.708;10.900;2023-02-24T05:46:51;21.50;;;13.98;;
21432;SDS011;18592;49.708;10.900;2023-02-24T05:48:59;19.30;;;12.90;;
21432;SDS011;18592;49.708;10.900;2023-02-24T05:51:02;21.10;;;13.68;;
21432;SDS011;18592;49.708;10.900;2023-02-24T05:53:08;21.38;;;13.48;;
21432;SDS011;18592;49.708;10.900;2023-02-24T05:55:09;20.80;;;14.07;;
21432;SDS011;18592;49.708;10.900;2023-02-24T05:57:15;19.42;;;12.73;;
21432;SDS011;18592;49.708;10.900;2023-02-24T05:59:22;19.45;;;13.25;;
21432;SDS011;18592;49.708;10.900;2023-02-24T06:01:24;19.90;;;13.60;;
21432;SDS011;18592;49.708;10.900;2023-02-24T06:03:30;21.73;;;14.18;;
21432;SDS011;18592;49.708;10.900;2023-02-24T06:05:35;23.10;;;14.50;;
21432;SDS011;18592;49.708;10.900;2023-02-24T06:07:40;23.60;;;14.45;;
21432;SDS011;18592;49.708;10.900;2023-02-24T06:09:46;21.42;;;13.93;;
21432;SDS011;18592;49.708;10.900;2023-02-24T06:11:53;22.90;;;14.45;;
21432;SDS011;18592;49.708;10.900;2023-02-24T06:13:55;24.83;;;15.02;;
21432;SDS011;18592;49.708;10.900;2023-02-24T06:15:58;21.75;;;14.55;;
21432;SDS011;18592;49.708;10.900;2023-02-24T06:17:59;23.35;;;15.65;;
21432;SDS011;18592;49.708;10.900;2023-02-24T06:20:01;22.38;;;14.98;;
21432;SDS011;18592;49.708;10.900;2023-02-24T06:22:14;24.77;;;15.55;;
21432;SDS011;18592;49.708;10.900;2023-02-24T06:24:19;21.92;;;14.52;;
21432;SDS011;18592;49.708;10.900;2023-02-24T06:26:21;24.25;;;16.17;;
21432;SDS011;18592;49.708;10.900;2023-02-24T06:28:23;26.92;;;16.42;;
21432;SDS011;18592;49.708;10.900;2023-02-24T06:30:25;23.13;;;14.95;;
21432;SDS011;18592;49.708;10.900;2023-02-24T06:32:27;24.58;;;16.10;;
21432;SDS011;18592;49.708;10.900;2023-02-24T06:34:32;24.60;;;15.52;;
21432;SDS011;18592;49.708;10.900;2023-02-24T06:36:33;24.73;;;15.38;;
21432;SDS011;18592;49.708;10.900;2023-02-24T06:38:35;25.75;;;15.50;;
21432;SDS011;18592;49.708;10.900;2023-02-24T06:40:37;22.63;;;15.27;;
21432;SDS011;18592;49.708;10.900;2023-02-24T06:42:39;24.60;;;15.98;;
21432;SDS011;18592;49.708;10.900;2023-02-24T06:44:40;24.77;;;15.52;;
21432;SDS011;18592;49.708;10.900;2023-02-24T06:46:42;24.42;;;16.38;;
21432;SDS011;18592;49.708;10.900;2023-02-24T06:48:44;25.90;;;16.83;;
21432;SDS011;18592;49.708;10.900;2023-02-24T06:50:48;26.63;;;17.67;;
21432;SDS011;18592;49.708;10.900;2023-02-24T06:52:54;23.95;;;16.08;;
21432;SDS011;18592;49.708;10.900;2023-02-24T06:55:02;24.00;;;15.93;;
21432;SDS011;18592;49.708;10.900;2023-02-24T06:57:05;27.65;;;17.88;;
21432;SDS011;18592;49.708;10.900;2023-02-24T06:59:10;23.48;;;15.88;;
21432;SDS011;18592;49.708;10.900;2023-02-24T07:01:24;22.55;;;14.90;;
21432;SDS011;18592;49.708;10.900;2023-02-24T07:03:29;25.40;;;16.88;;
21432;SDS011;18592;49.708;10.900;2023-02-24T07:05:40;24.85;;;16.08;;
21432;SDS011;18592;49.708;10.900;2023-02-24T07:07:54;24.90;;;16.55;;
21432;SDS011;18592;49.708;10.900;2023-02-24T07:09:57;22.75;;;15.30;;
21432;SDS011;18592;49.708;10.900;2023-02-24T07:11:59;24.95;;;15.90;;
21432;SDS011;18592;49.708;10.900;2023-02-24T07:14:03;24.45;;;15.90;;
21432;SDS011;18592;49.708;10.900;2023-02-24T07:16:08;22.73;;;14.82;;
21432;SDS011;18592;49.708;10.900;2023-02-24T07:18:11;24.60;;;15.73;;
21432;SDS011;18592;49.708;10.900;2023-02-24T07:20:15;26.85;;;16.02;;
21432;SDS011;18592;49.708;10.900;2023-02-24T07:22:25;28.35;;;16.63;;
21432;SDS011;18592;49.708;10.900;2023-02-24T07:24:28;25.30;;;16.48;;
21432;SDS011;18592;49.708;10.900;2023-02-24T07:26:36;22.13;;;15.23;;
21432;SDS011;18592;49.708;10.900;2023-02-24T07:28:42;26.48;;;16.52;;
21432;SDS011;18592;49.708;10.900;2023-02-24T07:30:44;23.83;;;15.82;;
21432;SDS011;18592;49.708;10.900;2023-02-24T07:32:46;26.35;;;16.02;;
21432;SDS011;18592;49.708;10.900;2023-02-24T07:34:49;25.35;;;16.27;;
21432;SDS011;18592;49.708;10.900;2023-02-24T07:36:51;25.63;;;15.50;;
21432;SDS011;18592;49.708;10.900;2023-02-24T07:38:53;29.00;;;17.25;;
21432;SDS011;18592;49.708;10.900;2023-02-24T07:40:56;26.88;;;16.48;;
21432;SDS011;18592;49.708;10.900;2023-02-24T07:42:59;23.55;;;15.90;;
21432;SDS011;18592;49.708;10.900;2023-02-24T07:45:01;26.38;;;16.67;;
21432;SDS011;18592;49.708;10.900;2023-02-24T07:47:05;24.05;;;15.88;;
21432;SDS011;18592;49.708;10.900;2023-02-24T07:49:12;27.08;;;17.00;;
21432;SDS011;18592;49.708;10.900;2023-02-24T07:51:16;24.75;;;15.50;;
21432;SDS011;18592;49.708;10.900;2023-02-24T07:53:21;24.85;;;15.20;;
21432;SDS011;18592;49.708;10.900;2023-02-24T07:55:22;24.15;;;15.95;;
21432;SDS011;18592;49.708;10.900;2023-02-24T07:57:26;23.63;;;15.32;;
21432;SDS011;18592;49.708;10.900;2023-02-24T07:59:29;26.00;;;16.13;;
21432;SDS011;18592;49.708;10.900;2023-02-24T08:01:34;25.80;;;16.08;;
21432;SDS011;18592;49.708;10.900;2023-02-24T08:03:40;24.40;;;15.70;;
21432;SDS011;18592;49.708;10.900;2023-02-24T08:05:42;26.65;;;16.42;;
21432;SDS011;18592;49.708;10.900;2023-02-24T08:07:46;24.80;;;15.13;;
21432;SDS011;18592;49.708;10.900;2023-02-24T08:09:51;22.42;;;14.82;;
21432;SDS011;18592;49.708;10.900;2023-02-24T08:12:16;25.98;;;15.85;;
21432;SDS011;18592;49.708;10.900;2023-02-24T08:14:25;23.58;;;14.95;;
21432;SDS011;18592;49.708;10.900;2023-02-24T08:16:35;25.15;;;16.52;;
21432;SDS011;18592;49.708;10.900;2023-02-24T08:18:39;25.02;;;14.93;;
21432;SDS011;18592;49.708;10.900;2023-02-24T08:20:43;26.98;;;15.65;;
21432;SDS011;18592;49.708;10.900;2023-02-24T08:22:55;25.48;;;15.07;;
21432;SDS011;18592;49.708;10.900;2023-02-24T08:24:57;23.50;;;14.52;;
21432;SDS011;18592;49.708;10.900;2023-02-24T08:27:06;23.85;;;15.25;;
21432;SDS011;18592;49.708;10.900;2023-02-24T08:29:07;23.15;;;13.63;;
21432;SDS011;18592;49.708;10.900;2023-02-24T08:31:09;22.55;;;13.55;;
21432;SDS011;18592;49.708;10.900;2023-02-24T08:33:17;22.35;;;14.55;;
21432;SDS011;18592;49.708;10.900;2023-02-24T08:35:22;25.63;;;15.13;;
21432;SDS011;18592;49.708;10.900;2023-02-24T08:37:31;22.20;;;14.13;;
21432;SDS011;18592;49.708;10.900;2023-02-24T08:39:34;21.02;;;13.80;;
21432;SDS011;18592;49.708;10.900;2023-02-24T08:41:36;23.30;;;13.90;;
21432;SDS011;18592;49.708;10.900;2023-02-24T08:43:51;23.40;;;14.02;;
21432;SDS011;18592;49.708;10.900;2023-02-24T08:46:00;20.58;;;13.57;;
21432;SDS011;18592;49.708;10.900;2023-02-24T08:48:14;21.15;;;12.98;;
21432;SDS011;18592;49.708;10.900;2023-02-24T08:50:27;23.35;;;13.25;;
21432;SDS011;18592;49.708;10.900;2023-02-24T08:52:34;21.88;;;13.75;;
21432;SDS011;18592;49.708;10.900;2023-02-24T08:54:35;23.88;;;14.32;;
21432;SDS011;18592;49.708;10.900;2023-02-24T08:56:48;21.00;;;13.18;;
21432;SDS011;18592;49.708;10.900;2023-02-24T08:58:51;22.92;;;14.88;;
21432;SDS011;18592;49.708;10.900;2023-02-24T09:00:57;21.35;;;13.93;;
21432;SDS011;18592;49.708;10.900;2023-02-24T09:02:59;23.50;;;13.82;;
21432;SDS011;18592;49.708;10.900;2023-02-24T09:05:02;23.02;;;14.75;;
21432;SDS011;18592;49.708;10.900;2023-02-24T09:07:11;21.17;;;13.50;;
21432;SDS011;18592;49.708;10.900;2023-02-24T09:09:16;24.20;;;14.45;;
21432;SDS011;18592;49.708;10.900;2023-02-24T09:11:23;21.60;;;14.15;;
21432;SDS011;18592;49.708;10.900;2023-02-24T09:13:24;21.40;;;13.63;;
21432;SDS011;18592;49.708;10.900;2023-02-24T09:15:33;22.33;;;13.70;;
21432;SDS011;18592;49.708;10.900;2023-02-24T09:17:42;21.85;;;13.40;;
21432;SDS011;18592;49.708;10.900;2023-02-24T09:19:49;22.33;;;13.00;;
21432;SDS011;18592;49.708;10.900;2023-02-24T09:21:51;20.02;;;12.27;;
21432;SDS011;18592;49.708;10.900;2023-02-24T09:23:52;23.45;;;13.00;;
21432;SDS011;18592;49.708;10.900;2023-02-24T09:25:54;19.40;;;12.77;;
21432;SDS011;18592;49.708;10.900;2023-02-24T09:28:07;21.33;;;12.98;;
21432;SDS011;18592;49.708;10.900;2023-02-24T09:30:09;19.08;;;12.13;;
21432;SDS011;18592;49.708;10.900;2023-02-24T09:32:31;20.15;;;12.40;;
21432;SDS011;18592;49.708;10.900;2023-02-24T09:34:35;19.60;;;12.50;;
21432;SDS011;18592;49.708;10.900;2023-02-24T09:36:44;19.58;;;12.55;;
21432;SDS011;18592;49.708;10.900;2023-02-24T09:39:01;20.55;;;13.52;;
21432;SDS011;18592;49.708;10.900;2023-02-24T09:41:06;20.27;;;12.65;;
21432;SDS011;18592;49.708;10.900;2023-02-24T09:43:30;20.13;;;12.15;;
21432;SDS011;18592;49.708;10.900;2023-02-24T09:45:58;18.48;;;11.50;;
21432;SDS011;18592;49.708;10.900;2023-02-24T09:48:04;21.38;;;12.15;;
21432;SDS011;18592;49.708;10.900;2023-02-24T09:52:41;17.40;;;11.32;;
21432;SDS011;18592;49.708;10.900;2023-02-24T09:54:44;15.95;;;10.02;;
21432;SDS011;18592;49.708;10.900;2023-02-24T09:57:11;16.98;;;10.55;;
21432;SDS011;18592;49.708;10.900;2023-02-24T09:59:20;16.20;;;10.52;;
21432;SDS011;18592;49.708;10.900;2023-02-24T10:07:29;14.90;;;10.15;;
21432;SDS011;18592;49.708;10.900;2023-02-24T10:09:43;14.50;;;9.20;;
21432;SDS011;18592;49.708;10.900;2023-02-24T10:11:50;15.68;;;10.05;;
21432;SDS011;18592;49.708;10.900;2023-02-24T10:13:55;16.13;;;10.95;;
21432;SDS011;18592;49.708;10.900;2023-02-24T10:16:04;14.98;;;9.77;;
21432;SDS011;18592;49.708;10.900;2023-02-24T10:20:31;13.10;;;8.75;;
21432;SDS011;18592;49.708;10.900;2023-02-24T10:22:52;17.25;;;10.52;;
21432;SDS011;18592;49.708;10.900;2023-02-24T10:28:04;12.13;;;8.07;;
21432;SDS011;18592;49.708;10.900;2023-02-24T10:30:20;14.70;;;9.10;;
21432;SDS011;18592;49.708;10.900;2023-02-24T10:35:00;12.52;;;8.30;;
21432;SDS011;18592;49.708;10.900;2023-02-24T10:37:13;14.60;;;8.48;;
21432;SDS011;18592;49.708;10.900;2023-02-24T10:39:29;12.35;;;7.93;;
21432;SDS011;18592;49.708;10.900;2023-02-24T10:41:43;12.68;;;7.95;;
21432;SDS011;18592;49.708;10.900;2023-02-24T10:43:56;11.65;;;7.70;;
21432;SDS011;18592;49.708;10.900;2023-02-24T10:46:00;12.48;;;7.28;;
21432;SDS011;18592;49.708;10.900;2023-02-24T10:48:22;10.70;;;7.65;;
21432;SDS011;18592;49.708;10.900;2023-02-24T10:50:43;12.70;;;7.05;;
21432;SDS011;18592;49.708;10.900;2023-02-24T10:53:03;11.90;;;6.50;;
21432;SDS011;18592;49.708;10.900;2023-02-24T10:55:15;9.25;;;6.20;;
21432;SDS011;18592;49.708;10.900;2023-02-24T10:57:43;9.30;;;6.38;;
21432;SDS011;18592;49.708;10.900;2023-02-24T10:59:59;8.95;;;6.47;;
21432;SDS011;18592;49.708;10.900;2023-02-24T11:02:24;9.60;;;6.35;;
21432;SDS011;18592;49.708;10.900;2023-02-24T11:04:35;8.02;;;5.70;;
21432;SDS011;18592;49.708;10.900;2023-02-24T11:07:04;11.90;;;6.25;;
21432;SDS011;18592;49.708;10.900;2023-02-24T11:11:30;9.05;;;6.18;;
21432;SDS011;18592;49.708;10.900;2023-02-24T11:13:58;9.38;;;6.65;;
21432;SDS011;18592;49.708;10.900;2023-02-24T11:16:20;11.05;;;6.18;;
21432;SDS011;18592;49.708;10.900;2023-02-24T11:18:44;9.82;;;6.47;;
21432;SDS011;18592;49.708;10.900;2023-02-24T11:20:50;9.38;;;5.85;;
21432;SDS011;18592;49.708;10.900;2023-02-24T11:22:55;11.75;;;7.32;;
21432;SDS011;18592;49.708;10.900;2023-02-24T11:24:59;9.05;;;6.20;;
21432;SDS011;18592;49.708;10.900;2023-02-24T11:27:08;10.48;;;6.80;;
21432;SDS011;18592;49.708;10.900;2023-02-24T11:29:22;9.30;;;6.40;;
21432;SDS011;18592;49.708;10.900;2023-02-24T11:36:31;10.00;;;6.15;;
21432;SDS011;18592;49.708;10.900;2023-02-24T11:38:56;8.65;;;6.22;;
21432;SDS011;18592;49.708;10.900;2023-02-24T11:41:26;10.25;;;6.53;;
21432;SDS011;18592;49.708;10.900;2023-02-24T11:43:34;9.23;;;6.32;;
21432;SDS011;18592;49.708;10.900;2023-02-24T11:45:42;10.77;;;6.32;;
21432;SDS011;18592;49.708;10.900;2023-02-24T11:47:54;10.55;;;6.22;;
21432;SDS011;18592;49.708;10.900;2023-02-24T11:52:37;10.63;;;6.43;;
21432;SDS011;18592;49.708;10.900;2023-02-24T11:54:44;12.15;;;7.20;;
21432;SDS011;18592;49.708;10.900;2023-02-24T11:56:55;9.63;;;6.63;;
21432;SDS011;18592;49.708;10.900;2023-02-24T11:59:04;10.60;;;7.13;;
21432;SDS011;18592;49.708;10.900;2023-02-24T12:01:21;10.23;;;6.95;;
21432;SDS011;18592;49.708;10.900;2023-02-24T12:03:36;10.45;;;6.85;;
21432;SDS011;18592;49.708;10.900;2023-02-24T12:05:48;12.60;;;7.68;;
21432;SDS011;18592;49.708;10.900;2023-02-24T12:07:55;10.70;;;7.18;;
21432;SDS011;18592;49.708;10.900;2023-02-24T12:12:20;10.30;;;7.05;;
21432;SDS011;18592;49.708;10.900;2023-02-24T12:14:32;10.43;;;6.68;;
21432;SDS011;18592;49.708;10.900;2023-02-24T12:16:41;9.52;;;6.07;;
21432;SDS011;18592;49.708;10.900;2023-02-24T12:18:49;9.80;;;6.50;;
21432;SDS011;18592;49.708;10.900;2023-02-24T12:23:36;10.65;;;6.50;;
21432;SDS011;18592;49.708;10.900;2023-02-24T12:25:45;8.93;;;5.75;;
21432;SDS011;18592;49.708;10.900;2023-02-24T12:33:14;10.25;;;6.35;;
21432;SDS011;18592;49.708;10.900;2023-02-24T12:35:39;11.07;;;6.63;;
21432;SDS011;18592;49.708;10.900;2023-02-24T12:38:03;10.05;;;6.75;;
21432;SDS011;18592;49.708;10.900;2023-02-24T12:40:41;10.45;;;7.07;;
21432;SDS011;18592;49.708;10.900;2023-02-24T12:50:05;10.48;;;6.53;;
21432;SDS011;18592;49.708;10.900;2023-02-24T12:54:50;9.80;;;6.47;;
21432;SDS011;18592;49.708;10.900;2023-02-24T12:57:13;10.82;;;6.65;;
21432;SDS011;18592;49.708;10.900;2023-02-24T12:59:18;9.18;;;6.40;;
21432;SDS011;18592;49.708;10.900;2023-02-24T13:01:27;9.95;;;6.55;;
21432;SDS011;18592;49.708;10.900;2023-02-24T13:10:36;8.75;;;5.85;;
21432;SDS011;18592;49.708;10.900;2023-02-24T13:14:56;9.88;;;5.00;;
21432;SDS011;18592;49.708;10.900;2023-02-24T13:17:05;8.30;;;5.30;;
21432;SDS011;18592;49.708;10.900;2023-02-24T13:21:26;10.77;;;6.60;;
21432;SDS011;18592;49.708;10.900;2023-02-24T13:23:28;7.78;;;5.13;;
21432;SDS011;18592;49.708;10.900;2023-02-24T13:25:33;9.70;;;5.28;;
21432;SDS011;18592;49.708;10.900;2023-02-24T13:27:40;8.60;;;5.75;;
21432;SDS011;18592;49.708;10.900;2023-02-24T13:29:44;9.45;;;5.68;;
21432;SDS011;18592;49.708;10.900;2023-02-24T13:31:50;8.23;;;5.22;;
21432;SDS011;18592;49.708;10.900;2023-02-24T13:33:53;8.02;;;5.05;;
21432;SDS011;18592;49.708;10.900;2023-02-24T13:36:17;7.72;;;5.32;;
21432;SDS011;18592;49.708;10.900;2023-02-24T13:38:25;9.30;;;5.82;;
21432;SDS011;18592;49.708;10.900;2023-02-24T13:40:39;8.23;;;5.72;;
21432;SDS011;18592;49.708;10.900;2023-02-24T13:42:41;8.05;;;5.70;;
21432;SDS011;18592;49.708;10.900;2023-02-24T13:45:15;8.60;;;5.10;;
21432;SDS011;18592;49.708;10.900;2023-02-24T13:47:28;9.23;;;5.43;;